sensor_id;sensor_type;location;lat;lon;timestamp;pressure;altitude;pressure_sealevel;temperature;humidity
9740;BME280;4909;42.680;26.324;2023-12-29T00:02:13;99162.13;;;8.81;72.79
9740;BME280;4909;42.680;26.324;2023-12-29T00:04:40;99177.69;;;8.91;73.20
9740;BME280;4909;42.680;26.324;2023-12-29T00:07:07;99128.03;;;8.70;72.75
9740;BME280;4909;42.680;26.324;2023-12-29T00:09:34;99172.66;;;9.11;72.61
9740;BME280;4909;42.680;26.324;2023-12-29T00:12:06;99154.31;;;9.05;73.07
9740;BME280;4909;42.680;26.324;2023-12-29T00:14:33;99170.69;;;9.20;71.89
9740;BME280;4909;42.680;26.324;2023-12-29T00:17:05;99171.88;;;9.09;71.42
9740;BME280;4909;42.680;26.324;2023-12-29T00:19:32;99170.88;;;8.83;72.39
9740;BME280;4909;42.680;26.324;2023-12-29T00:21:59;99184.66;;;8.95;72.51
9740;BME280;4909;42.680;26.324;2023-12-29T00:24:28;99182.19;;;8.88;73.46
9740;BME280;4909;42.680;26.324;2023-12-29T00:26:56;99172.59;;;8.85;73.64
9740;BME280;4909;42.680;26.324;2023-12-29T00:29:23;99187.16;;;9.00;72.46
9740;BME280;4909;42.680;26.324;2023-12-29T00:31:50;99183.63;;;8.99;73.05
9740;BME280;4909;42.680;26.324;2023-12-29T00:34:19;99167.53;;;9.05;71.84
9740;BME280;4909;42.680;26.324;2023-12-29T00:36:46;99144.50;;;8.80;71.87
9740;BME280;4909;42.680;26.324;2023-12-29T00:39:13;99149.56;;;8.87;71.38
9740;BME280;4909;42.680;26.324;2023-12-29T00:41:40;99161.78;;;8.91;71.85
9740;BME280;4909;42.680;26.324;2023-12-29T00:44:07;99184.53;;;8.98;72.08
9740;BME280;4909;42.680;26.324;2023-12-29T00:46:34;99166.28;;;8.89;72.35
9740;BME280;4909;42.680;26.324;2023-12-29T00:49:01;99162.91;;;8.84;72.49
9740;BME280;4909;42.680;26.324;2023-12-29T00:51:29;99126.69;;;8.55;73.18
9740;BME280;4909;42.680;26.324;2023-12-29T00:53:56;99133.16;;;8.76;72.46
9740;BME280;4909;42.680;26.324;2023-12-29T00:56:23;99175.72;;;8.98;72.42
9740;BME280;4909;42.680;26.324;2023-12-29T00:58:50;99151.81;;;9.01;71.32
9740;BME280;4909;42.680;26.324;2023-12-29T01:01:17;99171.59;;;8.89;72.35
9740;BME280;4909;42.680;26.324;2023-12-29T01:03:44;99169.66;;;8.94;71.75
9740;BME280;4909;42.680;26.324;2023-12-29T01:06:11;99167.19;;;8.88;72.80
9740;BME280;4909;42.680;26.324;2023-12-29T01:08:39;99161.13;;;8.85;72.25
9740;BME280;4909;42.680;26.324;2023-12-29T01:11:06;99165.13;;;8.98;72.28
9740;BME280;4909;42.680;26.324;2023-12-29T01:13:33;99156.00;;;9.08;71.03
9740;BME280;4909;42.680;26.324;2023-12-29T01:16:00;99158.03;;;9.00;71.26
9740;BME280;4909;42.680;26.324;2023-12-29T01:18:27;99145.66;;;9.00;71.54
9740;BME280;4909;42.680;26.324;2023-12-29T01:20:54;99145.53;;;9.05;71.07
9740;BME280;4909;42.680;26.324;2023-12-29T01:23:21;99154.53;;;8.99;71.15
9740;BME280;4909;42.680;26.324;2023-12-29T01:25:49;99135.16;;;8.97;70.84
9740;BME280;4909;42.680;26.324;2023-12-29T01:28:16;99134.25;;;8.98;71.03
9740;BME280;4909;42.680;26.324;2023-12-29T01:30:43;99151.81;;;9.01;70.93
9740;BME280;4909;42.680;26.324;2023-12-29T01:33:10;99148.56;;;8.91;71.81
9740;BME280;4909;42.680;26.324;2023-12-29T01:35:38;99130.53;;;8.75;71.46
9740;BME280;4909;42.680;26.324;2023-12-29T01:38:05;99122.69;;;8.71;72.27
9740;BME280;4909;42.680;26.324;2023-12-29T01:40:32;99117.59;;;8.65;72.18
9740;BME280;4909;42.680;26.324;2023-12-29T01:43:10;99123.94;;;8.89;71.37
9740;BME280;4909;42.680;26.324;2023-12-29T01:45:36;99106.50;;;8.82;71.13
9740;BME280;4909;42.680;26.324;2023-12-29T01:48:04;99127.53;;;8.87;71.45
9740;BME280;4909;42.680;26.324;2023-12-29T01:50:32;99123.19;;;8.84;71.42
9740;BME280;4909;42.680;26.324;2023-12-29T01:53:01;99124.06;;;8.85;71.25
9740;BME280;4909;42.680;26.324;2023-12-29T01:55:28;99067.44;;;8.61;71.71
9740;BME280;4909;42.680;26.324;2023-12-29T01:57:56;99119.59;;;8.87;71.13
9740;BME280;4909;42.680;26.324;2023-12-29T02:00:25;99104.88;;;8.77;71.42
9740;BME280;4909;42.680;26.324;2023-12-29T02:02:53;99096.63;;;8.87;70.52
9740;BME280;4909;42.680;26.324;2023-12-29T02:05:20;99113.28;;;8.91;70.47
9740;BME280;4909;42.680;26.324;2023-12-29T02:07:51;99103.69;;;8.87;70.35
9740;BME280;4909;42.680;26.324;2023-12-29T02:10:19;99101.34;;;8.78;70.79
9740;BME280;4909;42.680;26.324;2023-12-29T02:12:47;99037.19;;;8.40;70.90
9740;BME280;4909;42.680;26.324;2023-12-29T02:15:15;99091.44;;;8.55;71.46
9740;BME280;4909;42.680;26.324;2023-12-29T02:17:50;99064.69;;;8.35;72.04
9740;BME280;4909;42.680;26.324;2023-12-29T02:20:19;99085.50;;;8.47;71.65
9740;BME280;4909;42.680;26.324;2023-12-29T02:22:46;99082.16;;;8.40;71.71
9740;BME280;4909;42.680;26.324;2023-12-29T02:25:15;99082.16;;;8.40;72.20
9740;BME280;4909;42.680;26.324;2023-12-29T02:27:49;99089.97;;;8.45;72.34
9740;BME280;4909;42.680;26.324;2023-12-29T02:30:22;99095.69;;;8.60;71.68
9740;BME280;4909;42.680;26.324;2023-12-29T02:32:54;99047.59;;;8.46;70.94
9740;BME280;4909;42.680;26.324;2023-12-29T02:35:23;99094.81;;;8.60;71.36
9740;BME280;4909;42.680;26.324;2023-12-29T02:37:52;99087.19;;;8.49;72.12
9740;BME280;4909;42.680;26.324;2023-12-29T02:40:21;99077.91;;;8.35;72.83
9740;BME280;4909;42.680;26.324;2023-12-29T02:42:48;99084.97;;;8.65;71.51
9740;BME280;4909;42.680;26.324;2023-12-29T02:45:16;99081.28;;;8.40;72.91
9740;BME280;4909;42.680;26.324;2023-12-29T02:47:43;99058.09;;;8.49;71.70
9740;BME280;4909;42.680;26.324;2023-12-29T02:50:10;99079.34;;;8.46;72.12
9740;BME280;4909;42.680;26.324;2023-12-29T02:52:37;99087.19;;;8.49;72.06
9740;BME280;4909;42.680;26.324;2023-12-29T02:55:04;99068.78;;;8.46;72.10
9740;BME280;4909;42.680;26.324;2023-12-29T02:57:33;99059.44;;;8.33;72.37
9740;BME280;4909;42.680;26.324;2023-12-29T03:00:00;99057.81;;;8.27;72.47
9740;BME280;4909;42.680;26.324;2023-12-29T03:02:27;99076.78;;;8.43;71.90
9740;BME280;4909;42.680;26.324;2023-12-29T03:04:54;99078.38;;;8.49;71.32
9740;BME280;4909;42.680;26.324;2023-12-29T03:07:21;99083.84;;;8.43;71.46
9740;BME280;4909;42.680;26.324;2023-12-29T03:09:48;98991.31;;;7.79;72.30
9740;BME280;4909;42.680;26.324;2023-12-29T03:12:15;99060.63;;;8.21;72.34
9740;BME280;4909;42.680;26.324;2023-12-29T03:14:44;99076.88;;;8.40;71.54
9740;BME280;4909;42.680;26.324;2023-12-29T03:17:12;99077.41;;;8.20;72.11
9740;BME280;4909;42.680;26.324;2023-12-29T03:19:39;99068.63;;;8.18;72.72
9740;BME280;4909;42.680;26.324;2023-12-29T03:22:06;99044.59;;;7.97;72.34
9740;BME280;4909;42.680;26.324;2023-12-29T03:24:34;99072.28;;;8.14;73.26
9740;BME280;4909;42.680;26.324;2023-12-29T03:27:01;99051.09;;;8.16;71.20
9740;BME280;4909;42.680;26.324;2023-12-29T03:29:28;99062.53;;;8.16;71.09
9740;BME280;4909;42.680;26.324;2023-12-29T03:31:57;99080.00;;;8.22;72.02
9740;BME280;4909;42.680;26.324;2023-12-29T03:34:24;99080.75;;;8.27;70.77
9740;BME280;4909;42.680;26.324;2023-12-29T03:36:51;99071.03;;;8.27;70.58
9740;BME280;4909;42.680;26.324;2023-12-29T03:39:18;99068.09;;;8.07;72.13
9740;BME280;4909;42.680;26.324;2023-12-29T03:41:45;99078.53;;;8.12;71.16
9740;BME280;4909;42.680;26.324;2023-12-29T03:44:12;99065.56;;;8.03;71.25
9740;BME280;4909;42.680;26.324;2023-12-29T03:46:40;99069.81;;;8.08;71.66
9740;BME280;4909;42.680;26.324;2023-12-29T03:49:08;99031.78;;;7.81;72.31
9740;BME280;4909;42.680;26.324;2023-12-29T03:51:35;99071.63;;;8.06;72.10
9740;BME280;4909;42.680;26.324;2023-12-29T03:54:02;99049.13;;;7.92;71.11
9740;BME280;4909;42.680;26.324;2023-12-29T03:56:29;99057.34;;;7.81;72.06
9740;BME280;4909;42.680;26.324;2023-12-29T03:58:56;99050.16;;;7.86;72.27
9740;BME280;4909;42.680;26.324;2023-12-29T04:01:24;99071.72;;;8.03;71.82
9740;BME280;4909;42.680;26.324;2023-12-29T04:03:53;99063.72;;;8.05;71.80
9740;BME280;4909;42.680;26.324;2023-12-29T04:06:21;99062.22;;;7.96;72.36
9740;BME280;4909;42.680;26.324;2023-12-29T04:08:48;99051.28;;;7.77;72.46
9740;BME280;4909;42.680;26.324;2023-12-29T04:11:15;99059.72;;;7.90;72.75
9740;BME280;4909;42.680;26.324;2023-12-29T04:13:42;99057.44;;;7.78;73.06
9740;BME280;4909;42.680;26.324;2023-12-29T04:16:09;99054.66;;;7.82;72.76
9740;BME280;4909;42.680;26.324;2023-12-29T04:18:36;99063.91;;;7.99;71.43
9740;BME280;4909;42.680;26.324;2023-12-29T04:21:03;99061.31;;;7.97;71.44
9740;BME280;4909;42.680;26.324;2023-12-29T04:23:32;99065.84;;;7.92;72.22
9740;BME280;4909;42.680;26.324;2023-12-29T04:25:59;99061.63;;;7.85;71.67
9740;BME280;4909;42.680;26.324;2023-12-29T04:28:26;99065.34;;;7.78;72.28
9740;BME280;4909;42.680;26.324;2023-12-29T04:30:53;99065.72;;;7.64;72.96
9740;BME280;4909;42.680;26.324;2023-12-29T04:33:20;99069.00;;;7.74;72.12
9740;BME280;4909;42.680;26.324;2023-12-29T04:35:47;99062.00;;;7.71;71.52
9740;BME280;4909;42.680;26.324;2023-12-29T04:38:14;99057.06;;;7.59;73.00
9740;BME280;4909;42.680;26.324;2023-12-29T04:40:44;99048.38;;;7.54;72.63
9740;BME280;4909;42.680;26.324;2023-12-29T04:43:11;99052.53;;;7.63;73.52
9740;BME280;4909;42.680;26.324;2023-12-29T04:45:38;99057.44;;;7.78;72.44
9740;BME280;4909;42.680;26.324;2023-12-29T04:48:05;99050.94;;;7.90;71.43
9740;BME280;4909;42.680;26.324;2023-12-29T04:50:32;99045.28;;;7.71;71.77
9740;BME280;4909;42.680;26.324;2023-12-29T04:52:59;99039.69;;;7.83;70.34
9740;BME280;4909;42.680;26.324;2023-12-29T04:55:26;99030.53;;;7.62;71.48
9740;BME280;4909;42.680;26.324;2023-12-29T04:57:55;99050.41;;;7.77;71.62
9740;BME280;4909;42.680;26.324;2023-12-29T05:00:22;99024.66;;;7.51;71.82
9740;BME280;4909;42.680;26.324;2023-12-29T05:02:49;99050.38;;;7.78;71.40
9740;BME280;4909;42.680;26.324;2023-12-29T05:05:16;99045.28;;;7.71;70.17
9740;BME280;4909;42.680;26.324;2023-12-29T05:07:43;99048.28;;;7.57;71.51
9740;BME280;4909;42.680;26.324;2023-12-29T05:10:10;99055.03;;;7.69;70.67
9740;BME280;4909;42.680;26.324;2023-12-29T05:12:37;99051.66;;;7.62;70.45
9740;BME280;4909;42.680;26.324;2023-12-29T05:15:06;99058.47;;;7.71;70.25
9740;BME280;4909;42.680;26.324;2023-12-29T05:17:33;99070.78;;;7.72;69.83
9740;BME280;4909;42.680;26.324;2023-12-29T05:20:00;99065.50;;;7.72;70.01
9740;BME280;4909;42.680;26.324;2023-12-29T05:22:27;99061.13;;;7.71;69.68
9740;BME280;4909;42.680;26.324;2023-12-29T05:24:54;99042.91;;;7.60;70.17
9740;BME280;4909;42.680;26.324;2023-12-29T05:27:25;99006.75;;;7.30;69.64
9740;BME280;4909;42.680;26.324;2023-12-29T05:29:52;99047.53;;;7.52;70.20
9740;BME280;4909;42.680;26.324;2023-12-29T05:32:21;99057.34;;;7.47;70.62
9740;BME280;4909;42.680;26.324;2023-12-29T05:34:48;99072.06;;;7.57;70.10
9740;BME280;4909;42.680;26.324;2023-12-29T05:37:15;99061.75;;;7.47;70.94
9740;BME280;4909;42.680;26.324;2023-12-29T05:39:42;99048.88;;;7.34;71.46
9740;BME280;4909;42.680;26.324;2023-12-29T05:42:09;99052.84;;;7.51;70.90
9740;BME280;4909;42.680;26.324;2023-12-29T05:44:36;99075.06;;;7.42;71.41
9740;BME280;4909;42.680;26.324;2023-12-29T05:47:04;99026.22;;;7.26;70.40
9740;BME280;4909;42.680;26.324;2023-12-29T05:49:32;99073.84;;;7.55;70.52
9740;BME280;4909;42.680;26.324;2023-12-29T05:52:04;99070.03;;;7.67;69.71
9740;BME280;4909;42.680;26.324;2023-12-29T05:54:31;99043.31;;;7.45;69.98
9740;BME280;4909;42.680;26.324;2023-12-29T05:56:58;99075.78;;;7.50;71.27
9740;BME280;4909;42.680;26.324;2023-12-29T05:59:25;99075.22;;;7.70;70.53
9740;BME280;4909;42.680;26.324;2023-12-29T06:01:52;99076.84;;;7.75;70.21
9740;BME280;4909;42.680;26.324;2023-12-29T06:04:19;99055.69;;;7.43;71.08
9740;BME280;4909;42.680;26.324;2023-12-29T06:06:47;99076.31;;;7.63;70.65
9740;BME280;4909;42.680;26.324;2023-12-29T06:09:14;99074.44;;;7.68;70.04
9740;BME280;4909;42.680;26.324;2023-12-29T06:11:41;99066.91;;;7.85;69.06
9740;BME280;4909;42.680;26.324;2023-12-29T06:14:08;99077.66;;;7.79;69.47
9740;BME280;4909;42.680;26.324;2023-12-29T06:16:35;99071.09;;;7.94;68.78
9740;BME280;4909;42.680;26.324;2023-12-29T06:19:02;99065.00;;;7.90;69.32
9740;BME280;4909;42.680;26.324;2023-12-29T06:21:29;99070.75;;;8.06;68.07
9740;BME280;4909;42.680;26.324;2023-12-29T06:23:58;99051.06;;;8.17;67.59
9740;BME280;4909;42.680;26.324;2023-12-29T06:26:25;99056.97;;;8.25;67.19
9740;BME280;4909;42.680;26.324;2023-12-29T06:28:52;99059.25;;;8.08;67.97
9740;BME280;4909;42.680;26.324;2023-12-29T06:31:19;99062.59;;;8.13;67.63
9740;BME280;4909;42.680;26.324;2023-12-29T06:33:46;99052.00;;;8.15;67.61
9740;BME280;4909;42.680;26.324;2023-12-29T06:36:13;99058.00;;;8.21;68.08
9740;BME280;4909;42.680;26.324;2023-12-29T06:38:40;99058.00;;;8.21;69.21
9740;BME280;4909;42.680;26.324;2023-12-29T06:41:09;99066.16;;;8.45;67.74
9740;BME280;4909;42.680;26.324;2023-12-29T06:43:36;99058.00;;;9.09;65.31
9740;BME280;4909;42.680;26.324;2023-12-29T06:46:03;99066.78;;;9.89;61.25
9740;BME280;4909;42.680;26.324;2023-12-29T06:48:31;99062.72;;;10.30;58.52
9740;BME280;4909;42.680;26.324;2023-12-29T06:50:58;99038.97;;;11.17;55.53
9740;BME280;4909;42.680;26.324;2023-12-29T06:53:25;99045.50;;;11.94;52.57
9740;BME280;4909;42.680;26.324;2023-12-29T06:55:52;99063.22;;;13.10;49.34
9740;BME280;4909;42.680;26.324;2023-12-29T06:58:21;99079.59;;;14.26;45.22
9740;BME280;4909;42.680;26.324;2023-12-29T07:00:48;99073.06;;;14.49;43.97
9740;BME280;4909;42.680;26.324;2023-12-29T07:03:15;99040.94;;;14.33;43.54
9740;BME280;4909;42.680;26.324;2023-12-29T07:05:42;99061.22;;;15.34;41.32
9740;BME280;4909;42.680;26.324;2023-12-29T07:08:12;99068.69;;;16.04;39.96
9740;BME280;4909;42.680;26.324;2023-12-29T07:10:39;99042.25;;;16.42;38.09
9740;BME280;4909;42.680;26.324;2023-12-29T07:13:06;99030.69;;;15.98;38.15
9740;BME280;4909;42.680;26.324;2023-12-29T07:15:35;99062.22;;;15.93;39.03
9740;BME280;4909;42.680;26.324;2023-12-29T07:18:03;99073.25;;;16.02;39.02
9740;BME280;4909;42.680;26.324;2023-12-29T07:20:30;99020.59;;;16.17;38.41
9740;BME280;4909;42.680;26.324;2023-12-29T07:22:57;99039.25;;;17.45;35.83
9740;BME280;4909;42.680;26.324;2023-12-29T07:25:24;99056.47;;;17.81;34.38
9740;BME280;4909;42.680;26.324;2023-12-29T07:27:51;99067.06;;;18.62;33.42
9740;BME280;4909;42.680;26.324;2023-12-29T07:30:18;99069.97;;;19.70;31.66
9740;BME280;4909;42.680;26.324;2023-12-29T07:32:47;99054.22;;;20.11;30.42
9740;BME280;4909;42.680;26.324;2023-12-29T07:35:14;99069.06;;;20.52;30.19
9740;BME280;4909;42.680;26.324;2023-12-29T07:37:42;99065.88;;;20.69;29.02
9740;BME280;4909;42.680;26.324;2023-12-29T07:40:11;99049.94;;;20.55;29.51
9740;BME280;4909;42.680;26.324;2023-12-29T07:42:39;99064.78;;;20.60;28.77
9740;BME280;4909;42.680;26.324;2023-12-29T07:45:07;99062.59;;;20.99;28.70
9740;BME280;4909;42.680;26.324;2023-12-29T07:47:34;99075.69;;;21.59;27.96
9740;BME280;4909;42.680;26.324;2023-12-29T07:50:03;99033.84;;;21.42;27.36
9740;BME280;4909;42.680;26.324;2023-12-29T07:52:31;99084.66;;;22.23;26.86
9740;BME280;4909;42.680;26.324;2023-12-29T07:54:58;99042.69;;;21.76;26.91
9740;BME280;4909;42.680;26.324;2023-12-29T07:57:25;99060.84;;;23.10;25.41
9740;BME280;4909;42.680;26.324;2023-12-29T07:59:52;99057.06;;;23.22;25.27
9740;BME280;4909;42.680;26.324;2023-12-29T08:02:19;99077.81;;;23.42;25.17
9740;BME280;4909;42.680;26.324;2023-12-29T08:04:46;99073.16;;;23.63;25.01
9740;BME280;4909;42.680;26.324;2023-12-29T08:07:15;99047.63;;;23.56;24.80
9740;BME280;4909;42.680;26.324;2023-12-29T08:09:42;99069.25;;;24.35;23.47
9740;BME280;4909;42.680;26.324;2023-12-29T08:12:09;99065.94;;;24.02;24.27
9740;BME280;4909;42.680;26.324;2023-12-29T08:14:36;99093.78;;;24.62;23.75
9740;BME280;4909;42.680;26.324;2023-12-29T08:17:03;99090.00;;;25.29;22.55
9740;BME280;4909;42.680;26.324;2023-12-29T08:19:30;99070.63;;;25.14;23.76
9740;BME280;4909;42.680;26.324;2023-12-29T08:21:57;99090.13;;;25.00;24.41
9740;BME280;4909;42.680;26.324;2023-12-29T08:24:25;99099.19;;;24.72;25.80
9740;BME280;4909;42.680;26.324;2023-12-29T08:26:52;99098.34;;;24.52;26.04
9740;BME280;4909;42.680;26.324;2023-12-29T08:29:19;99080.28;;;24.80;25.34
9740;BME280;4909;42.680;26.324;2023-12-29T08:31:47;99069.34;;;23.75;26.67
9740;BME280;4909;42.680;26.324;2023-12-29T08:34:14;99094.03;;;23.82;27.23
9740;BME280;4909;42.680;26.324;2023-12-29T08:36:41;99094.31;;;22.16;29.07
9740;BME280;4909;42.680;26.324;2023-12-29T08:39:08;99068.00;;;21.21;31.06
9740;BME280;4909;42.680;26.324;2023-12-29T08:41:38;99037.19;;;21.12;31.12
9740;BME280;4909;42.680;26.324;2023-12-29T08:44:05;99072.78;;;21.17;31.83
9740;BME280;4909;42.680;26.324;2023-12-29T08:46:32;99064.78;;;20.60;32.93
9740;BME280;4909;42.680;26.324;2023-12-29T08:48:59;99063.03;;;20.59;33.34
9740;BME280;4909;42.680;26.324;2023-12-29T08:51:27;99049.38;;;20.27;33.55
9740;BME280;4909;42.680;26.324;2023-12-29T08:53:55;99087.94;;;20.63;33.42
9740;BME280;4909;42.680;26.324;2023-12-29T08:56:22;99084.13;;;20.54;33.22
9740;BME280;4909;42.680;26.324;2023-12-29T08:58:50;99040.84;;;20.10;33.52
9740;BME280;4909;42.680;26.324;2023-12-29T09:01:18;99096.16;;;20.61;32.83
9740;BME280;4909;42.680;26.324;2023-12-29T09:03:45;99093.41;;;20.39;33.34
9740;BME280;4909;42.680;26.324;2023-12-29T09:06:12;99089.19;;;20.00;33.88
9740;BME280;4909;42.680;26.324;2023-12-29T09:08:39;99076.88;;;19.25;35.26
9740;BME280;4909;42.680;26.324;2023-12-29T09:11:06;99092.00;;;18.89;36.20
9740;BME280;4909;42.680;26.324;2023-12-29T09:13:33;99074.13;;;18.88;35.54
9740;BME280;4909;42.680;26.324;2023-12-29T09:16:02;99080.72;;;18.97;35.76
9740;BME280;4909;42.680;26.324;2023-12-29T09:18:29;99077.69;;;19.74;33.98
9740;BME280;4909;42.680;26.324;2023-12-29T09:20:56;99060.88;;;20.18;33.05
9740;BME280;4909;42.680;26.324;2023-12-29T09:23:23;99058.72;;;19.76;33.08
9740;BME280;4909;42.680;26.324;2023-12-29T09:25:50;99076.00;;;20.08;33.40
9740;BME280;4909;42.680;26.324;2023-12-29T09:28:16;99025.69;;;19.85;33.58
9740;BME280;4909;42.680;26.324;2023-12-29T09:30:43;99038.25;;;20.43;32.33
9740;BME280;4909;42.680;26.324;2023-12-29T09:33:12;99073.34;;;20.54;32.27
9740;BME280;4909;42.680;26.324;2023-12-29T09:35:39;99064.84;;;20.36;32.17
9740;BME280;4909;42.680;26.324;2023-12-29T09:38:06;99064.94;;;20.00;33.40
9740;BME280;4909;42.680;26.324;2023-12-29T09:40:35;99058.25;;;19.82;33.10
9740;BME280;4909;42.680;26.324;2023-12-29T09:43:03;99053.06;;;19.31;34.54
9740;BME280;4909;42.680;26.324;2023-12-29T09:45:32;99013.50;;;18.72;36.03
9740;BME280;4909;42.680;26.324;2023-12-29T09:48:01;99025.22;;;18.20;37.11
9740;BME280;4909;42.680;26.324;2023-12-29T09:50:29;99052.59;;;18.12;38.49
9740;BME280;4909;42.680;26.324;2023-12-29T09:52:57;99050.09;;;17.43;40.27
9740;BME280;4909;42.680;26.324;2023-12-29T09:55:26;99041.88;;;16.91;42.39
9740;BME280;4909;42.680;26.324;2023-12-29T09:57:55;99030.41;;;16.61;42.88
9740;BME280;4909;42.680;26.324;2023-12-29T10:00:22;99035.13;;;16.27;43.71
9740;BME280;4909;42.680;26.324;2023-12-29T10:02:51;99003.41;;;15.77;44.93
9740;BME280;4909;42.680;26.324;2023-12-29T10:05:18;98964.22;;;15.31;46.68
9740;BME280;4909;42.680;26.324;2023-12-29T10:07:47;99011.31;;;15.49;46.81
9740;BME280;4909;42.680;26.324;2023-12-29T10:10:15;98977.38;;;15.19;46.76
9740;BME280;4909;42.680;26.324;2023-12-29T10:12:44;99001.81;;;15.43;47.20
9740;BME280;4909;42.680;26.324;2023-12-29T10:15:19;99014.50;;;15.40;48.04
9740;BME280;4909;42.680;26.324;2023-12-29T10:17:52;99013.06;;;15.18;48.88
9740;BME280;4909;42.680;26.324;2023-12-29T10:20:28;99014.03;;;15.17;49.32
9740;BME280;4909;42.680;26.324;2023-12-29T10:23:05;98968.25;;;14.92;49.19
9740;BME280;4909;42.680;26.324;2023-12-29T10:25:34;98978.59;;;14.83;49.36
9740;BME280;4909;42.680;26.324;2023-12-29T10:28:01;99001.84;;;14.96;50.23
9740;BME280;4909;42.680;26.324;2023-12-29T10:30:29;98991.88;;;15.00;50.28
9740;BME280;4909;42.680;26.324;2023-12-29T10:32:57;98994.63;;;14.98;50.82
9740;BME280;4909;42.680;26.324;2023-12-29T10:35:26;98973.34;;;14.81;51.08
9740;BME280;4909;42.680;26.324;2023-12-29T10:37:53;98995.56;;;14.97;50.55
9740;BME280;4909;42.680;26.324;2023-12-29T10:40:21;98989.81;;;14.89;51.06
9740;BME280;4909;42.680;26.324;2023-12-29T10:42:52;98992.38;;;14.75;52.03
9740;BME280;4909;42.680;26.324;2023-12-29T10:45:20;98977.13;;;14.77;51.54
9740;BME280;4909;42.680;26.324;2023-12-29T10:47:48;98982.38;;;14.78;52.19
9740;BME280;4909;42.680;26.324;2023-12-29T10:50:15;98953.25;;;14.58;51.49
9740;BME280;4909;42.680;26.324;2023-12-29T10:52:42;98976.00;;;14.65;52.35
9740;BME280;4909;42.680;26.324;2023-12-29T10:55:10;98965.47;;;14.47;52.49
9740;BME280;4909;42.680;26.324;2023-12-29T10:57:39;98972.38;;;14.33;54.16
9740;BME280;4909;42.680;26.324;2023-12-29T11:00:08;98970.09;;;14.43;53.83
9740;BME280;4909;42.680;26.324;2023-12-29T11:02:38;98950.41;;;14.13;54.86
9740;BME280;4909;42.680;26.324;2023-12-29T11:05:06;98949.66;;;14.26;54.24
9740;BME280;4909;42.680;26.324;2023-12-29T11:07:37;98940.09;;;14.22;53.81
9740;BME280;4909;42.680;26.324;2023-12-29T11:10:06;98964.94;;;14.40;53.90
9740;BME280;4909;42.680;26.324;2023-12-29T11:12:36;98953.94;;;14.46;53.38
9740;BME280;4909;42.680;26.324;2023-12-29T11:15:06;98952.97;;;14.63;52.96
9740;BME280;4909;42.680;26.324;2023-12-29T11:17:34;98953.84;;;14.63;52.87
9740;BME280;4909;42.680;26.324;2023-12-29T11:20:03;98914.88;;;14.44;52.58
9740;BME280;4909;42.680;26.324;2023-12-29T11:22:31;98945.06;;;14.61;52.62
9740;BME280;4909;42.680;26.324;2023-12-29T11:24:59;98945.75;;;14.49;53.00
9740;BME280;4909;42.680;26.324;2023-12-29T11:27:30;98953.41;;;14.40;53.31
9740;BME280;4909;42.680;26.324;2023-12-29T11:29:58;98941.00;;;14.39;53.42
9740;BME280;4909;42.680;26.324;2023-12-29T11:32:32;98896.75;;;14.17;53.21
9740;BME280;4909;42.680;26.324;2023-12-29T11:35:13;98929.72;;;14.49;53.10
9740;BME280;4909;42.680;26.324;2023-12-29T11:38:18;98938.25;;;14.40;53.67
9740;BME280;4909;42.680;26.324;2023-12-29T11:40:52;98945.25;;;14.25;54.03
9740;BME280;4909;42.680;26.324;2023-12-29T11:43:22;98927.06;;;14.16;54.31
9740;BME280;4909;42.680;26.324;2023-12-29T11:45:49;98927.78;;;14.35;54.01
9740;BME280;4909;42.680;26.324;2023-12-29T11:48:56;98927.13;;;14.48;53.72
9740;BME280;4909;42.680;26.324;2023-12-29T11:51:34;98923.09;;;14.41;53.54
9740;BME280;4909;42.680;26.324;2023-12-29T11:54:02;98927.03;;;14.49;53.46
9740;BME280;4909;42.680;26.324;2023-12-29T11:56:37;98929.28;;;14.41;54.13
9740;BME280;4909;42.680;26.324;2023-12-29T11:59:17;98920.09;;;14.47;53.99
9740;BME280;4909;42.680;26.324;2023-12-29T12:01:46;98915.31;;;14.36;54.31
9740;BME280;4909;42.680;26.324;2023-12-29T12:04:37;98912.31;;;14.58;53.66
9740;BME280;4909;42.680;26.324;2023-12-29T12:07:07;98898.94;;;14.58;53.41
9740;BME280;4909;42.680;26.324;2023-12-29T12:09:35;98922.84;;;14.61;53.55
9740;BME280;4909;42.680;26.324;2023-12-29T12:12:02;98901.47;;;14.61;53.46
9740;BME280;4909;42.680;26.324;2023-12-29T12:14:44;98913.38;;;14.71;53.43
9740;BME280;4909;42.680;26.324;2023-12-29T12:17:11;98890.69;;;14.62;53.59
9740;BME280;4909;42.680;26.324;2023-12-29T12:19:40;98888.34;;;14.72;53.29
9740;BME280;4909;42.680;26.324;2023-12-29T12:22:09;98885.75;;;14.86;53.50
9740;BME280;4909;42.680;26.324;2023-12-29T12:24:37;98868.34;;;14.79;52.82
9740;BME280;4909;42.680;26.324;2023-12-29T12:27:09;98904.28;;;14.89;53.00
9740;BME280;4909;42.680;26.324;2023-12-29T12:29:36;98892.28;;;14.96;52.90
9740;BME280;4909;42.680;26.324;2023-12-29T12:32:04;98879.19;;;14.92;52.92
9740;BME280;4909;42.680;26.324;2023-12-29T12:34:36;98829.63;;;14.56;52.93
9740;BME280;4909;42.680;26.324;2023-12-29T12:37:05;98888.31;;;15.03;52.68
9740;BME280;4909;42.680;26.324;2023-12-29T12:39:39;98895.50;;;15.17;52.38
9740;BME280;4909;42.680;26.324;2023-12-29T12:42:06;98895.25;;;15.21;52.24
9740;BME280;4909;42.680;26.324;2023-12-29T12:44:33;98857.00;;;15.05;52.28
9740;BME280;4909;42.680;26.324;2023-12-29T12:47:06;98897.56;;;15.28;52.79
9740;BME280;4909;42.680;26.324;2023-12-29T12:49:34;98897.56;;;15.28;53.22
9740;BME280;4909;42.680;26.324;2023-12-29T12:52:01;98887.88;;;15.25;53.01
9740;BME280;4909;42.680;26.324;2023-12-29T12:54:30;98897.56;;;15.28;52.22
9740;BME280;4909;42.680;26.324;2023-12-29T12:56:58;98902.13;;;15.26;52.12
9740;BME280;4909;42.680;26.324;2023-12-29T12:59:27;98899.72;;;15.21;52.47
9740;BME280;4909;42.680;26.324;2023-12-29T13:01:54;98902.81;;;15.29;52.13
9740;BME280;4909;42.680;26.324;2023-12-29T13:04:22;98907.69;;;15.37;52.29
9740;BME280;4909;42.680;26.324;2023-12-29T13:06:49;98894.50;;;15.19;52.21
9740;BME280;4909;42.680;26.324;2023-12-29T13:09:16;98886.19;;;15.24;52.53
9740;BME280;4909;42.680;26.324;2023-12-29T13:11:46;98908.44;;;15.25;52.73
9740;BME280;4909;42.680;26.324;2023-12-29T13:14:19;98890.16;;;15.17;53.22
9740;BME280;4909;42.680;26.324;2023-12-29T13:16:47;98902.13;;;15.26;53.08
9740;BME280;4909;42.680;26.324;2023-12-29T13:19:15;98910.34;;;15.22;53.02
9740;BME280;4909;42.680;26.324;2023-12-29T13:21:46;98919.53;;;15.33;52.95
9740;BME280;4909;42.680;26.324;2023-12-29T13:24:13;98890.44;;;15.12;53.22